Time;durP1;ratioP1;P1;durP2;ratioP2;P2;SDS_P1;SDS_P2;PMS_P1;PMS_P2;Temp;Humidity;BMP_temperature;BMP_pressure;BME280_temperature;BME280_humidity;BME280_pressure;Samples;Min_cycle;Max_cycle;Signal;HPM_P1;HPM_P2
2021/09/28 00:02:20;;;;;;;23.55;16.52;;;;;;;15.46;100.00;94927.22;10158925;29;20032;-73
2021/09/28 00:07:21;;;;;;;28.90;19.10;;;;;;;15.27;100.00;94923.78;10158331;29;20063;-75
2021/09/28 00:12:21;;;;;;;24.83;17.92;;;;;;;15.15;100.00;94927.75;10158445;29;20518;-75
2021/09/28 00:17:22;;;;;;;32.70;20.83;;;;;;;15.07;100.00;94925.75;10158575;29;20048;-70
2021/09/28 00:22:22;;;;;;;37.08;22.85;;;;;;;15.14;100.00;94919.91;10158092;29;20869;-72
2021/09/28 00:27:23;;;;;;;32.90;21.63;;;;;;;15.15;100.00;94927.75;10157859;29;20039;-71
2021/09/28 00:32:23;;;;;;;33.85;21.75;;;;;;;15.16;100.00;94937.47;10158069;29;20039;-75
2021/09/28 00:37:24;;;;;;;31.30;21.60;;;;;;;15.17;100.00;94944.50;10157619;29;20470;-77
2021/09/28 00:42:24;;;;;;;31.50;21.10;;;;;;;15.18;100.00;94932.56;10157761;29;20275;-77
2021/09/28 00:47:25;;;;;;;32.15;21.45;;;;;;;15.21;100.00;94925.78;10158428;29;20031;-75
2021/09/28 00:52:25;;;;;;;33.93;21.17;;;;;;;15.21;100.00;94929.28;10158541;29;20032;-71
2021/09/28 00:57:26;;;;;;;29.55;20.25;;;;;;;15.29;100.00;94927.75;10157077;29;20284;-71
2021/09/28 01:02:26;;;;;;;30.45;19.85;;;;;;;15.30;100.00;94913.13;10172957;29;20024;-74
2021/09/28 01:07:26;;;;;;;26.53;19.30;;;;;;;15.24;100.00;94908.09;10172417;29;20042;-73
2021/09/28 01:12:27;;;;;;;31.77;20.23;;;;;;;15.25;100.00;94912.41;10158909;29;20291;-71
2021/09/28 01:17:27;;;;;;;24.50;18.67;;;;;;;15.46;100.00;94924.50;10157873;29;20347;-77
2021/09/28 01:22:28;;;;;;;25.57;18.77;;;;;;;15.55;100.00;94919.97;10172701;29;20056;-73
2021/09/28 01:27:34;;;;;;;25.58;14.70;;;;;;;15.55;100.00;94911.06;10172142;29;20284;-72
2021/09/28 01:32:35;;;;;;;20.42;12.98;;;;;;;15.58;100.00;94901.53;10156276;29;20024;-69
2021/09/28 01:37:35;;;;;;;22.90;13.70;;;;;;;15.61;100.00;94901.72;10171951;29;20072;-73
2021/09/28 01:42:36;;;;;;;17.17;13.17;;;;;;;15.52;100.00;94896.22;10156164;29;20024;-69
2021/09/28 01:47:36;;;;;;;23.98;14.45;;;;;;;15.43;100.00;94891.78;10171186;29;20272;-70
2021/09/28 01:52:37;;;;;;;20.17;13.37;;;;;;;15.38;100.00;94906.25;10157116;29;20032;-71
2021/09/28 01:57:37;;;;;;;18.13;12.20;;;;;;;15.38;100.00;94911.66;10155846;29;20537;-69
2021/09/28 02:02:38;;;;;;;18.63;11.80;;;;;;;15.36;100.00;94922.78;10157755;29;20092;-73
2021/09/28 02:07:38;;;;;;;18.17;13.07;;;;;;;15.52;100.00;94917.88;10173108;29;20036;-72
2021/09/28 02:12:39;;;;;;;22.05;13.25;;;;;;;15.59;100.00;94920.19;10163973;29;20331;-68
2021/09/28 02:17:40;;;;;;;20.05;13.35;;;;;;;15.73;100.00;94914.78;10178257;29;20047;-72
2021/09/28 02:22:40;;;;;;;21.52;13.65;;;;;;;15.83;100.00;94922.72;10163095;29;20044;-72
2021/09/28 02:27:41;;;;;;;17.40;13.35;;;;;;;15.82;100.00;94914.91;10162512;29;20028;-72
2021/09/28 02:32:42;;;;;;;19.50;13.05;;;;;;;15.72;100.00;94913.16;10162274;29;20490;-69
2021/09/28 02:37:42;;;;;;;15.07;11.40;;;;;;;15.75;100.00;94904.44;10162380;29;20043;-74
2021/09/28 02:42:43;;;;;;;17.13;12.30;;;;;;;15.82;100.00;94902.19;10162675;29;20052;-69
2021/09/28 02:47:44;;;;;;;19.23;12.10;;;;;;;15.83;100.00;94902.97;10177269;29;20028;-72
2021/09/28 02:52:44;;;;;;;17.40;11.77;;;;;;;15.80;100.00;94901.66;10161500;29;20024;-71
2021/09/28 02:57:45;;;;;;;15.02;12.07;;;;;;;15.58;100.00;94907.75;10161303;29;20051;-72
2021/09/28 03:02:45;;;;;;;13.93;11.65;;;;;;;15.53;100.00;94915.97;10162065;29;20020;-75
2021/09/28 03:07:46;;;;;;;19.73;12.48;;;;;;;15.35;100.00;94917.66;10160836;29;20028;-72
2021/09/28 03:12:46;;;;;;;20.30;12.57;;;;;;;15.19;100.00;94919.84;10160088;29;20039;-69
2021/09/28 03:17:47;;;;;;;19.57;12.47;;;;;;;14.78;100.00;94939.47;10160601;29;20040;-71
2021/09/28 03:22:47;;;;;;;19.00;12.60;;;;;;;14.53;100.00;94939.50;10160315;29;20276;-75
2021/09/28 03:27:48;;;;;;;19.40;12.23;;;;;;;14.31;100.00;94944.72;10160171;29;20681;-70
2021/09/28 03:32:48;;;;;;;17.25;12.35;;;;;;;14.08;100.00;94936.38;10161465;29;20292;-75
2021/09/28 03:37:50;;;;;;;20.73;14.37;;;;;;;14.01;100.00;94939.41;10159902;29;20352;-76
2021/09/28 03:42:51;;;;;;;23.52;14.70;;;;;;;14.04;100.00;94942.63;10159275;29;20552;-70
2021/09/28 03:47:51;;;;;;;18.15;13.82;;;;;;;13.90;100.00;94961.44;10160927;29;20035;-75
2021/09/28 03:52:52;;;;;;;20.58;12.77;;;;;;;13.82;100.00;94952.06;10160618;29;20067;-69
2021/09/28 03:57:53;;;;;;;18.77;13.90;;;;;;;13.69;100.00;94940.06;10143163;29;20032;-74
2021/09/28 04:02:53;;;;;;;20.42;13.80;;;;;;;13.60;100.00;94952.59;10173973;29;20280;-70
2021/09/28 04:07:54;;;;;;;21.47;14.60;;;;;;;13.46;100.00;94955.97;10158350;29;20024;-67
2021/09/28 04:12:54;;;;;;;21.27;13.97;;;;;;;13.45;100.00;94958.94;10159873;29;20296;-74
2021/09/28 04:17:55;;;;;;;21.20;13.88;;;;;;;13.43;100.00;94955.75;10173415;29;20801;-70
2021/09/28 04:22:55;;;;;;;20.43;13.47;;;;;;;13.39;100.00;94971.69;10134344;29;20063;-65
2021/09/28 04:27:56;;;;;;;20.53;14.77;;;;;;;13.49;100.00;94966.22;10127083;29;20268;-68
2021/09/28 04:32:56;;;;;;;24.00;14.43;;;;;;;13.52;100.00;94964.81;10172447;29;20861;-74
2021/09/28 04:37:56;;;;;;;20.20;13.15;;;;;;;13.51;100.00;94965.91;10155841;29;20140;-72
2021/09/28 04:42:57;;;;;;;19.65;11.93;;;;;;;13.54;100.00;94961.84;10156780;29;20036;-71
2021/09/28 04:47:57;;;;;;;20.50;12.53;;;;;;;13.53;100.00;94955.63;10155979;29;20111;-67
2021/09/28 04:52:58;;;;;;;18.65;12.88;;;;;;;13.47;100.00;94944.06;10156815;29;20303;-68
2021/09/28 04:57:58;;;;;;;17.00;11.17;;;;;;;13.44;100.00;94952.75;10156430;29;20039;-75
2021/09/28 05:02:58;;;;;;;18.13;13.02;;;;;;;13.58;100.00;94943.97;10156293;29;20505;-74
2021/09/28 05:07:59;;;;;;;18.67;12.93;;;;;;;13.61;100.00;94940.72;10150700;29;20071;-74
2021/09/28 05:12:59;;;;;;;19.50;12.90;;;;;;;13.59;100.00;94937.47;10141902;29;20115;-69
2021/09/28 05:18:00;;;;;;;18.85;11.13;;;;;;;13.63;100.00;94933.09;10157063;29;20802;-69
2021/09/28 05:23:00;;;;;;;15.33;10.77;;;;;;;13.69;100.00;94931.97;10140021;29;20063;-73
2021/09/28 05:28:00;;;;;;;20.63;12.00;;;;;;;13.86;100.00;94945.00;10155936;29;20280;-69
2021/09/28 05:33:01;;;;;;;21.67;13.20;;;;;;;14.00;100.00;94953.22;10156189;29;20763;-69
2021/09/28 05:38:02;;;;;;;30.92;16.33;;;;;;;14.08;100.00;94966.09;10156777;29;20490;-71
2021/09/28 05:43:02;;;;;;;25.58;14.82;;;;;;;14.32;100.00;94959.84;10158575;29;20063;-69
2021/09/28 05:48:02;;;;;;;22.63;13.75;;;;;;;14.43;100.00;94966.72;10163149;29;20027;-72
2021/09/28 05:53:07;;;;;;;26.65;14.30;;;;;;;14.59;100.00;94959.19;10178986;29;20088;-69
2021/09/28 05:58:08;;;;;;;24.73;14.95;;;;;;;14.53;100.00;94950.34;10163800;29;20024;-71
2021/09/28 06:03:08;;;;;;;22.05;12.80;;;;;;;14.60;100.00;94954.59;10178471;29;20036;-72
2021/09/28 06:08:09;;;;;;;23.80;11.37;;;;;;;14.67;100.00;94950.44;10178678;29;20040;-72
2021/09/28 06:13:09;;;;;;;17.00;10.55;;;;;;;14.67;100.00;94958.53;10177170;29;20505;-73
2021/09/28 06:18:09;;;;;;;21.37;13.17;;;;;;;14.69;100.00;94972.59;10146904;29;20661;-72
2021/09/28 06:23:11;;;;;;;19.85;12.38;;;;;;;14.81;100.00;94971.34;10161917;29;20323;-69
2021/09/28 06:28:12;;;;;;;17.50;9.45;;;;;;;14.98;100.00;94968.09;10177112;29;20123;-71
2021/09/28 06:33:12;;;;;;;14.30;9.80;;;;;;;15.08;100.00;94969.84;10163152;29;20054;-70
2021/09/28 06:38:13;;;;;;;13.57;9.13;;;;;;;15.12;100.00;94971.66;10176888;29;20046;-72
2021/09/28 06:43:13;;;;;;;13.52;8.45;;;;;;;15.07;100.00;94976.34;10176372;29;20288;-69
2021/09/28 06:48:15;;;;;;;14.37;8.33;;;;;;;15.18;100.00;94977.78;10160839;29;20119;-69
2021/09/28 06:53:16;;;;;;;14.23;9.30;;;;;;;14.97;100.00;94986.25;10159827;29;20313;-69
2021/09/28 06:58:16;;;;;;;18.98;10.77;;;;;;;15.08;100.00;94977.97;10160250;29;20032;-73
2021/09/28 07:03:17;;;;;;;13.03;8.43;;;;;;;15.33;100.00;94982.94;10162053;29;20028;-71
2021/09/28 07:08:18;;;;;;;13.18;8.52;;;;;;;15.45;100.00;94981.69;10160408;29;20291;-70
2021/09/28 07:13:18;;;;;;;13.68;9.15;;;;;;;15.77;100.00;94986.25;10160088;29;20545;-72
2021/09/28 07:18:19;;;;;;;12.75;8.55;;;;;;;16.27;100.00;94995.59;10160013;29;20293;-71
2021/09/28 07:23:19;;;;;;;17.88;8.32;;;;;;;16.41;100.00;94990.97;10159701;29;20036;-67
2021/09/28 07:28:20;;;;;;;17.35;9.07;;;;;;;16.34;100.00;94985.97;10159568;29;20482;-70
2021/09/28 07:33:20;;;;;;;16.20;9.37;;;;;;;16.38;100.00;94994.28;10159231;29;20032;-70
2021/09/28 07:38:21;;;;;;;17.45;8.90;;;;;;;16.45;100.00;94989.28;10159466;29;20359;-72
2021/09/28 07:43:21;;;;;;;17.55;7.97;;;;;;;16.91;100.00;94988.28;10158932;29;20039;-74
2021/09/28 07:48:22;;;;;;;19.30;7.57;;;;;;;17.57;100.00;94992.41;10158887;29;20032;-69
2021/09/28 07:53:22;;;;;;;9.37;7.30;;;;;;;19.16;100.00;94984.38;10143675;29;20024;-71
2021/09/28 07:58:23;;;;;;;13.20;6.37;;;;;;;20.86;100.00;94989.38;10142884;29;20363;-73
2021/09/28 08:03:24;;;;;;;9.40;5.60;;;;;;;21.10;100.00;94980.50;10158558;29;20284;-67
2021/09/28 08:08:25;;;;;;;11.32;5.95;;;;;;;21.53;100.00;94996.88;10157985;29;20027;-73
2021/09/28 08:13:25;;;;;;;12.73;5.70;;;;;;;22.25;92.10;94991.09;10160201;29;20040;-71
2021/09/28 08:18:25;;;;;;;6.75;4.90;;;;;;;23.38;91.01;94974.94;10158808;29;20382;-71
2021/09/28 08:23:26;;;;;;;7.60;5.13;;;;;;;23.76;84.91;94976.34;10172906;29;20024;-71
2021/09/28 08:33:46;;;;;;;11.60;6.65;;;;;;;22.69;86.72;94981.16;10158386;29;20025;-73
2021/09/28 08:38:47;;;;;;;7.97;5.23;;;;;;;22.62;86.44;94993.81;10172575;29;20036;-74
2021/09/28 08:43:49;;;;;;;6.07;4.80;;;;;;;22.52;88.16;94984.94;10158331;29;20295;-72
2021/09/28 08:48:50;;;;;;;10.45;5.57;;;;;;;22.64;89.70;94981.38;10156969;29;20308;-68
2021/09/28 08:53:50;;;;;;;9.07;5.63;;;;;;;22.67;89.04;94980.69;10156746;29;20119;-68
2021/09/28 08:58:52;;;;;;;10.27;5.47;;;;;;;22.79;86.76;94987.31;10156386;29;20442;-75
2021/09/28 09:03:53;;;;;;;11.93;5.80;;;;;;;22.73;90.85;94988.69;10157710;29;20039;-73
2021/09/28 09:09:01;;;;;;;8.30;6.22;;;;;;;22.48;91.75;94981.28;10155522;29;20028;-70
2021/09/28 09:14:10;;;;;;;;;;;;;;;22.77;97.54;94986.84;10155579;29;20032;-72
2021/09/28 09:19:29;;;;;;;9.48;6.00;;;;;;;22.94;82.91;94978.38;10155838;29;20353;-73
2021/09/28 09:24:51;;;;;;;9.93;6.93;;;;;;;23.10;85.43;94980.38;10155907;29;20482;-71
2021/09/28 09:30:08;;;;;;;14.45;6.30;;;;;;;23.42;83.01;94969.56;10155665;29;20028;-72
2021/09/28 09:35:08;;;;;;;10.85;6.43;;;;;;;24.08;80.21;94972.88;10170930;29;20485;-66
2021/09/28 09:40:10;;;;;;;11.35;6.47;;;;;;;23.97;76.56;94972.59;10160447;29;20068;-73
2021/09/28 09:45:22;;;;;;;10.32;6.43;;;;;;;23.52;77.47;94969.03;10170335;29;20087;-71
2021/09/28 09:50:23;;;;;;;12.05;5.88;;;;;;;22.99;77.72;94967.16;10173340;29;20024;-71
2021/09/28 09:55:31;;;;;;;12.90;6.00;;;;;;;23.29;83.60;94958.63;10173941;29;20020;-72
2021/09/28 10:00:33;;;;;;;15.55;5.82;;;;;;;25.05;62.10;94962.16;10174025;29;20054;-69
2021/09/28 10:05:34;;;;;;;10.15;5.70;;;;;;;24.78;63.50;94965.88;10174194;29;20482;-73
2021/09/28 10:10:35;;;;;;;10.38;5.72;;;;;;;24.72;70.36;94955.16;10174489;29;20028;-71
2021/09/28 10:15:36;;;;;;;10.73;6.72;;;;;;;24.25;70.46;94956.00;10172193;29;20038;-73
2021/09/28 10:20:38;;;;;;;9.00;6.10;;;;;;;23.79;73.28;94955.63;10169133;29;20054;-72
2021/09/28 10:25:41;;;;;;;16.48;6.25;;;;;;;23.12;78.25;94953.44;10156174;29;20032;-68
2021/09/28 10:30:43;;;;;;;19.65;6.38;;;;;;;22.98;84.10;94957.34;10179328;29;20507;-72
2021/09/28 10:36:13;;;;;;;13.77;7.45;;;;;;;22.69;82.69;94951.03;10180287;29;20463;-73
2021/09/28 10:41:42;;;;;;;12.23;6.93;;;;;;;22.74;85.17;94947.22;10180417;29;20032;-71
2021/09/28 10:46:42;;;;;;;8.35;5.95;;;;;;;22.92;81.72;94939.53;10194840;29;20459;-68
2021/09/28 10:51:43;;;;;;;10.83;5.97;;;;;;;23.68;78.66;94944.38;10149133;29;20033;-71
2021/09/28 10:56:51;;;;;;;12.50;6.88;;;;;;;24.12;74.89;94935.31;10138656;29;20025;-69
2021/09/28 11:02:09;;;;;;;12.13;6.50;;;;;;;23.59;73.95;94933.56;10124968;29;20043;-72
2021/09/28 11:07:13;;;;;;;7.57;5.75;;;;;;;23.22;79.35;94931.03;10152052;29;20036;-71
2021/09/28 11:12:14;;;;;;;10.73;6.25;;;;;;;23.14;83.04;94931.97;10154704;29;20394;-71
2021/09/28 11:17:16;;;;;;;11.82;6.47;;;;;;;23.41;82.62;94924.84;10137761;29;20037;-73
2021/09/28 11:22:19;;;;;;;10.70;6.10;;;;;;;23.49;79.13;94931.34;10121402;29;20199;-71
2021/09/28 11:27:20;;;;;;;7.90;6.22;;;;;;;22.90;83.29;94925.41;10122343;29;20044;-70
2021/09/28 11:32:20;;;;;;;11.63;6.10;;;;;;;22.34;89.57;94918.66;10158043;29;20036;-68
2021/09/28 11:37:21;;;;;;;8.93;6.83;;;;;;;22.01;97.97;94925.03;10161626;29;20038;-70
2021/09/28 11:42:31;;;;;;;10.27;6.45;;;;;;;22.17;95.59;94925.16;10160073;29;20305;-69
2021/09/28 11:47:40;;;;;;;12.55;7.03;;;;;;;21.76;97.89;94907.00;10161296;29;20071;-70
2021/09/28 11:52:41;;;;;;;11.10;6.88;;;;;;;21.61;97.96;94914.72;10160151;29;20051;-73
2021/09/28 11:57:41;;;;;;;9.55;6.93;;;;;;;21.54;97.76;94909.00;10161182;29;20032;-68
2021/09/28 12:02:42;;;;;;;21.10;9.35;;;;;;;21.61;97.97;94913.94;10159419;29;20031;-72
2021/09/28 12:12:50;;;;;;;16.00;6.63;;;;;;;21.56;95.83;94906.75;10160146;29;20676;-68
2021/09/28 12:17:51;;;;;;;7.45;6.30;;;;;;;21.70;94.58;94898.22;10158210;29;20044;-73
2021/09/28 12:22:53;;;;;;;13.60;6.80;;;;;;;21.60;97.10;94915.06;10142918;29;20036;-72
2021/09/28 12:28:02;;;;;;;9.40;6.95;;;;;;;21.03;99.55;94920.13;10158697;29;20043;-76
2021/09/28 12:33:07;;;;;;;12.20;7.65;;;;;;;20.68;100.00;94923.16;10158541;29;20031;-67
2021/09/28 12:38:10;;;;;;;11.25;7.18;;;;;;;20.56;100.00;94921.09;10158015;29;20032;-70
2021/09/28 12:43:14;;;;;;;11.20;6.95;;;;;;;20.44;100.00;94932.75;10158410;29;20036;-75
2021/09/28 12:48:16;;;;;;;9.77;6.40;;;;;;;20.25;100.00;94944.09;10157515;29;20059;-73
2021/09/28 12:53:16;;;;;;;14.20;7.90;;;;;;;19.85;100.00;94941.72;10157509;29;20477;-72
2021/09/28 12:58:17;;;;;;;11.27;8.07;;;;;;;19.67;100.00;94935.50;10157568;29;20028;-71
2021/09/28 13:03:18;;;;;;;15.60;9.20;;;;;;;19.26;100.00;94926.00;10172559;29;20071;-68
2021/09/28 13:08:24;;;;;;;15.25;8.32;;;;;;;18.97;100.00;94938.38;10173198;29;20275;-73
2021/09/28 13:13:26;;;;;;;16.25;11.63;;;;;;;18.45;100.00;94944.59;10158563;29;20046;-67
2021/09/28 13:18:27;;;;;;;18.75;11.30;;;;;;;18.03;100.00;94936.81;10175240;29;20082;-73
2021/09/28 13:23:28;;;;;;;16.98;11.20;;;;;;;17.71;100.00;94937.94;10169219;29;20486;-71
2021/09/28 13:28:28;;;;;;;20.90;12.10;;;;;;;17.57;100.00;94940.75;10156790;29;20020;-72
2021/09/28 13:33:30;;;;;;;16.67;10.80;;;;;;;17.48;100.00;94921.69;10156606;29;20075;-73
2021/09/28 13:38:30;;;;;;;14.57;11.32;;;;;;;17.54;100.00;94923.16;10156304;29;20101;-71
2021/09/28 13:43:30;;;;;;;14.75;11.27;;;;;;;17.80;100.00;94922.44;10174060;29;20096;-75
2021/09/28 13:48:31;;;;;;;18.97;10.87;;;;;;;18.02;100.00;94943.34;10175354;29;20054;-73
2021/09/28 13:53:31;;;;;;;17.43;10.80;;;;;;;18.26;100.00;94948.38;10173471;29;20300;-70
2021/09/28 13:58:32;;;;;;;18.00;10.07;;;;;;;18.47;100.00;94964.09;10171756;29;20550;-71
2021/09/28 14:03:32;;;;;;;20.33;12.37;;;;;;;18.64;100.00;94966.03;10159157;29;20119;-71
2021/09/28 14:08:33;;;;;;;20.10;12.73;;;;;;;18.70;100.00;94969.41;10162119;29;20289;-74
2021/09/28 14:13:34;;;;;;;21.30;14.27;;;;;;;18.55;100.00;94987.81;10149093;29;20841;-75
2021/09/28 14:18:34;;;;;;;23.00;14.93;;;;;;;18.22;100.00;94996.41;10161130;29;20123;-69
2021/09/28 14:23:35;;;;;;;25.38;15.88;;;;;;;17.92;100.00;95001.53;10150097;29;20087;-75
2021/09/28 14:28:35;;;;;;;23.17;16.40;;;;;;;17.76;100.00;94998.41;10177275;29;20106;-68
2021/09/28 14:33:36;;;;;;;25.20;17.35;;;;;;;17.68;100.00;95007.31;10163926;29;20403;-73
2021/09/28 14:38:36;;;;;;;28.97;15.83;;;;;;;17.61;100.00;95017.84;10163049;29;20119;-70
2021/09/28 14:43:37;;;;;;;25.38;16.13;;;;;;;17.71;100.00;95031.16;10176421;29;20280;-68
2021/09/28 14:48:37;;;;;;;31.85;17.38;;;;;;;17.67;100.00;95023.94;10129328;29;20024;-71
2021/09/28 14:53:37;;;;;;;26.10;17.73;;;;;;;17.54;100.00;95022.88;10162636;29;20115;-68
2021/09/28 14:58:38;;;;;;;28.67;18.57;;;;;;;17.42;100.00;95029.69;10161161;29;20020;-72
2021/09/28 15:03:38;;;;;;;27.15;18.00;;;;;;;17.31;100.00;95031.06;10145057;29;20715;-72
2021/09/28 15:08:39;;;;;;;26.85;18.05;;;;;;;17.23;100.00;95034.50;10176941;29;20028;-72
2021/09/28 15:13:39;;;;;;;32.45;19.52;;;;;;;17.33;100.00;95047.03;10161104;29;20449;-68
2021/09/28 15:18:40;;;;;;;34.23;17.83;;;;;;;17.25;100.00;95052.09;10160692;29;20138;-71
2021/09/28 15:23:41;;;;;;;29.10;18.58;;;;;;;17.28;100.00;95052.63;10160677;29;20343;-68
2021/09/28 15:28:41;;;;;;;35.17;19.20;;;;;;;17.21;100.00;95053.81;10161652;29;20032;-73
2021/09/28 15:33:41;;;;;;;26.47;17.90;;;;;;;17.10;100.00;95057.91;10161301;29;20279;-73
2021/09/28 15:38:54;;;;;;;39.00;17.60;;;;;;;16.87;100.00;95060.53;10160123;29;20319;-66
2021/09/28 15:43:56;;;;;;;32.70;17.88;;;;;;;16.97;100.00;95053.28;10159686;29;20431;-72
2021/09/28 15:48:57;;;;;;;32.20;18.27;;;;;;;16.67;100.00;95048.19;10161201;29;20032;-70
2021/09/28 15:53:57;;;;;;;30.02;19.50;;;;;;;16.29;100.00;95050.34;10175761;29;20032;-68
2021/09/28 15:58:58;;;;;;;33.47;20.60;;;;;;;15.94;100.00;95064.28;10175645;29;20025;-67
2021/09/28 16:03:58;;;;;;;38.08;22.27;;;;;;;15.49;100.00;95077.50;10180977;23;20142;-71
2021/09/28 16:08:59;;;;;;;37.60;21.65;;;;;;;14.97;100.00;95077.44;10238679;28;20039;-74
2021/09/28 16:13:59;;;;;;;32.80;20.13;;;;;;;14.94;100.00;95091.56;10254013;28;20053;-67
2021/09/28 16:19:00;;;;;;;37.60;21.73;;;;;;;14.47;100.00;95089.44;10237328;29;20289;-68
2021/09/28 16:24:00;;;;;;;37.85;22.75;;;;;;;14.44;100.00;95090.03;10249171;28;20346;-67
2021/09/28 16:29:01;;;;;;;35.35;22.80;;;;;;;14.44;100.00;95108.94;10220239;29;20046;-70
2021/09/28 16:34:02;;;;;;;41.67;24.70;;;;;;;14.49;100.00;95108.88;10234337;29;20082;-70
2021/09/28 16:39:03;;;;;;;32.20;21.13;;;;;;;14.44;100.00;95114.34;10234644;29;20035;-67
2021/09/28 16:44:03;;;;;;;33.72;21.67;;;;;;;14.43;100.00;95114.63;10224732;28;20038;-66
2021/09/28 16:49:04;;;;;;;36.63;23.27;;;;;;;14.39;100.00;95122.50;10270348;28;20129;-69
2021/09/28 16:54:05;;;;;;;38.63;23.08;;;;;;;14.40;100.00;95115.19;10258892;28;20090;-72
2021/09/28 16:59:05;;;;;;;34.17;22.90;;;;;;;14.48;100.00;95120.81;10236215;28;20049;-71
2021/09/28 17:04:06;;;;;;;29.73;20.30;;;;;;;14.59;100.00;95126.09;10263043;28;20058;-70
2021/09/28 17:09:07;;;;;;;29.17;21.10;;;;;;;14.65;100.00;95131.19;10237692;28;20410;-69
2021/09/28 17:14:07;;;;;;;33.05;20.20;;;;;;;14.64;100.00;95129.56;10219618;29;20739;-72
2021/09/28 17:19:09;;;;;;;30.87;20.00;;;;;;;14.61;100.00;95134.69;10250659;28;20031;-67
2021/09/28 17:24:09;;;;;;;26.92;18.45;;;;;;;14.51;100.00;95146.44;10251172;28;20676;-67
2021/09/28 17:29:10;;;;;;;26.85;17.48;;;;;;;14.61;100.00;95142.81;10233543;28;20042;-74
2021/09/28 17:34:10;;;;;;;27.98;19.45;;;;;;;14.57;100.00;95147.19;10235524;28;20078;-67
2021/09/28 17:39:11;;;;;;;22.88;17.13;;;;;;;14.67;100.00;95145.22;10226149;28;20071;-72
2021/09/28 17:44:11;;;;;;;28.50;20.00;;;;;;;14.67;100.00;95144.41;10223909;29;20070;-71
2021/09/28 17:49:13;;;;;;;22.47;16.17;;;;;;;14.75;100.00;95142.94;10229846;29;20880;-72
2021/09/28 17:54:14;;;;;;;25.48;16.85;;;;;;;14.65;100.00;95144.69;10226380;29;20278;-71
2021/09/28 17:59:14;;;;;;;26.40;17.35;;;;;;;14.54;100.00;95148.59;10210755;29;20032;-68
2021/09/28 18:04:15;;;;;;;28.25;18.67;;;;;;;14.51;100.00;95147.25;10223664;29;20132;-71
2021/09/28 18:09:15;;;;;;;32.83;19.17;;;;;;;14.57;100.00;95158.00;10202465;29;20130;-72
2021/09/28 18:14:16;;;;;;;26.17;17.67;;;;;;;14.59;100.00;95169.34;10221909;28;20266;-68
2021/09/28 18:19:17;;;;;;;27.33;17.45;;;;;;;14.57;100.00;95163.41;10222025;29;20274;-68
2021/09/28 18:24:19;;;;;;;25.67;16.95;;;;;;;14.48;100.00;95174.88;10241221;29;20518;-71
2021/09/28 18:29:23;;;;;;;28.05;17.05;;;;;;;14.46;100.00;95174.34;10241005;29;20043;-72
2021/09/28 18:34:24;;;;;;;30.60;18.17;;;;;;;14.47;100.00;95175.16;10217004;28;20466;-70
2021/09/28 18:39:35;;;;;;;25.35;16.88;;;;;;;14.51;100.00;95179.72;10202327;28;20028;-74
2021/09/28 18:44:36;;;;;;;25.83;16.92;;;;;;;14.45;100.00;95180.06;10200448;29;20039;-68
2021/09/28 18:49:36;;;;;;;32.10;19.15;;;;;;;14.32;100.00;95185.03;10201368;29;20035;-72
2021/09/28 18:54:42;;;;;;;35.13;20.00;;;;;;;14.16;100.00;95189.81;10207658;29;20098;-70
2021/09/28 18:59:48;;;;;;;34.90;19.63;;;;;;;14.28;100.00;95196.72;10240234;29;20325;-76
2021/09/28 19:05:11;;;;;;;32.25;20.67;;;;;;;14.20;100.00;95200.84;10327564;23;20061;-71
2021/09/28 19:10:11;;;;;;;34.85;21.08;;;;;;;14.26;100.00;95209.69;10279482;28;20108;-70
2021/09/28 19:15:12;;;;;;;33.47;19.80;;;;;;;14.26;100.00;95210.53;10279939;28;20030;-71
2021/09/28 19:20:21;;;;;;;29.90;18.88;;;;;;;14.32;100.00;95211.28;10261671;28;20535;-72
2021/09/28 19:25:22;;;;;;;32.58;18.83;;;;;;;14.37;100.00;95211.22;10263342;28;20035;-73
2021/09/28 19:30:23;;;;;;;29.02;19.25;;;;;;;14.50;100.00;95205.16;10274501;28;20464;-75
2021/09/28 19:35:24;;;;;;;34.22;19.58;;;;;;;14.50;100.00;95210.56;10278252;28;20496;-74
2021/09/28 19:40:27;;;;;;;28.23;18.40;;;;;;;14.55;100.00;95206.19;10278391;28;20058;-76
2021/09/28 19:45:38;;;;;;;23.80;16.67;;;;;;;14.59;100.00;95207.22;10296292;28;20612;-73
2021/09/28 19:50:47;;;;;;;28.42;17.63;;;;;;;14.65;100.00;95200.69;10285165;28;20039;-74
2021/09/28 20:37:46;;;;;;;24.80;16.02;;;;;;;14.40;100.00;95185.50;10298312;28;20034;-73
2021/09/28 20:42:47;;;;;;;20.27;13.73;;;;;;;14.44;100.00;95189.25;10291234;28;20496;-69
2021/09/28 20:47:47;;;;;;;21.00;14.30;;;;;;;14.42;100.00;95192.25;10316835;28;20355;-75
2021/09/28 20:52:48;;;;;;;22.35;15.68;;;;;;;14.45;100.00;95197.06;10276838;28;20054;-68
2021/09/28 20:57:48;;;;;;;23.35;15.65;;;;;;;14.44;100.00;95189.25;10299840;28;20480;-69
2021/09/28 21:02:49;;;;;;;22.90;14.30;;;;;;;14.34;100.00;95184.75;10316167;28;20618;-72
2021/09/28 21:07:49;;;;;;;23.63;16.80;;;;;;;14.37;100.00;95184.16;10280678;28;20290;-75
2021/09/28 21:12:50;;;;;;;24.63;15.55;;;;;;;14.24;100.00;95184.88;10291566;28;20046;-72
2021/09/28 21:17:50;;;;;;;25.80;16.52;;;;;;;14.28;100.00;95185.91;10275338;28;20466;-72
2021/09/28 21:22:51;;;;;;;24.83;15.57;;;;;;;14.31;100.00;95185.34;10272025;28;20509;-73
2021/09/28 21:27:51;;;;;;;21.85;15.80;;;;;;;14.40;100.00;95185.50;10260211;28;20348;-71
2021/09/28 21:33:02;;;;;;;22.60;16.67;;;;;;;14.38;100.00;95180.38;10275802;28;20409;-62
2021/09/28 21:38:04;;;;;;;23.73;15.52;;;;;;;14.26;100.00;95182.66;10276036;28;20566;-70
2021/09/28 21:43:06;;;;;;;22.50;16.30;;;;;;;14.34;100.00;95185.56;10277529;28;20113;-69
2021/09/28 21:48:07;;;;;;;22.85;15.18;;;;;;;14.40;100.00;95178.22;10275856;28;20164;-75
2021/09/28 21:53:08;;;;;;;23.45;16.88;;;;;;;14.44;100.00;95181.97;10276011;28;20031;-70
2021/09/28 21:58:08;;;;;;;22.15;16.63;;;;;;;14.41;100.00;95187.13;10258545;28;20030;-74
2021/09/28 22:03:13;;;;;;;24.15;16.30;;;;;;;14.48;100.00;95179.47;10289984;23;20052;-73
2021/09/28 22:08:15;;;;;;;24.85;17.45;;;;;;;14.59;100.00;95191.00;10235292;28;20033;-67
2021/09/28 22:13:16;;;;;;;23.30;15.23;;;;;;;14.60;100.00;95184.50;10234404;28;20261;-70
2021/09/28 22:18:16;;;;;;;23.52;16.02;;;;;;;14.58;100.00;95184.78;10234300;28;20114;-71
2021/09/28 22:23:16;;;;;;;29.00;18.13;;;;;;;14.60;100.00;95188.00;10250671;28;20637;-71
2021/09/28 22:28:19;;;;;;;28.45;17.80;;;;;;;14.61;100.00;95191.50;10257696;28;20314;-71
2021/09/28 22:33:19;;;;;;;28.85;18.33;;;;;;;14.65;100.00;95188.00;10244267;28;20485;-70
2021/09/28 22:38:20;;;;;;;30.27;17.50;;;;;;;14.63;100.00;95181.25;10241692;28;20024;-70
2021/09/28 22:43:20;;;;;;;28.02;17.83;;;;;;;14.57;100.00;95193.16;10250797;28;20104;-67
2021/09/28 22:48:21;;;;;;;27.27;18.20;;;;;;;14.49;100.00;95191.91;10253454;28;20145;-69
2021/09/28 22:53:21;;;;;;;30.00;18.67;;;;;;;14.51;100.00;95190.53;10256941;28;20433;-66
2021/09/28 22:58:25;;;;;;;32.65;18.27;;;;;;;14.65;100.00;95193.41;10256272;28;20275;-74
2021/09/28 23:03:25;;;;;;;26.77;18.13;;;;;;;14.73;100.00;95191.94;10259521;28;20174;-73
2021/09/28 23:08:26;;;;;;;24.95;18.65;;;;;;;14.68;100.00;95192.03;10280478;28;20421;-70
2021/09/28 23:13:26;;;;;;;24.58;18.08;;;;;;;14.67;100.00;95193.91;10279514;28;20033;-67
2021/09/28 23:18:27;;;;;;;33.38;21.83;;;;;;;14.61;100.00;95188.78;10279953;28;20424;-68
2021/09/28 23:23:28;;;;;;;36.40;20.52;;;;;;;14.68;100.00;95194.72;10280545;28;20125;-75
2021/09/28 23:28:29;;;;;;;33.67;21.55;;;;;;;14.81;100.00;95198.63;10280618;28;20106;-67
2021/09/28 23:33:29;;;;;;;33.63;21.63;;;;;;;14.81;100.00;95183.19;10279546;28;20045;-72
2021/09/28 23:38:30;;;;;;;32.15;20.23;;;;;;;14.67;100.00;95193.09;10295103;28;20270;-72